Time;durP1;ratioP1;P1;durP2;ratioP2;P2;SDS_P1;SDS_P2;PMS_P1;PMS_P2;Temp;Humidity;BMP_temperature;BMP_pressure;BME280_temperature;BME280_humidity;BME280_pressure;Samples;Min_cycle;Max_cycle;Signal;HPM_P1;HPM_P2
2023/07/26 00:01:45;;;;;;;3.45;2.67;;;;;;;16.28;63.44;100915.94;3536652;40;20094;-64
2023/07/26 00:04:10;;;;;;;7.00;3.10;;;;;;;15.86;64.38;100842.66;3535547;40;20118;-64
2023/07/26 00:06:36;;;;;;;2.97;2.67;;;;;;;15.73;63.55;100817.53;3537493;40;20593;-65
2023/07/26 00:09:02;;;;;;;3.85;2.50;;;;;;;15.75;64.17;100829.13;3539625;40;20454;-65
2023/07/26 00:11:29;;;;;;;4.38;2.85;;;;;;;16.29;63.76;100906.81;3537149;40;20402;-65
2023/07/26 00:13:55;;;;;;;3.53;2.58;;;;;;;16.27;64.16;100907.91;3537936;40;20057;-65
2023/07/26 00:16:21;;;;;;;3.40;2.53;;;;;;;16.26;64.06;100904.34;3534820;40;20066;-65
2023/07/26 00:18:47;;;;;;;3.08;2.80;;;;;;;16.19;64.82;100901.28;3532733;40;20400;-65
2023/07/26 00:21:12;;;;;;;4.72;2.90;;;;;;;15.70;64.50;100817.81;3537481;40;20050;-64
2023/07/26 00:23:38;;;;;;;5.72;3.33;;;;;;;16.20;64.46;100900.28;3539737;40;20636;-65
2023/07/26 00:26:03;;;;;;;3.67;2.95;;;;;;;16.20;64.23;100908.44;3538453;40;20058;-65
2023/07/26 00:28:29;;;;;;;4.05;3.13;;;;;;;16.15;64.44;100899.84;3535580;40;20062;-65
2023/07/26 00:30:55;;;;;;;3.28;2.97;;;;;;;16.19;65.00;100901.28;3535811;40;20093;-65
2023/07/26 00:33:21;;;;;;;3.55;2.80;;;;;;;15.70;64.44;100815.97;3537970;40;20381;-65
2023/07/26 00:35:46;;;;;;;4.75;3.15;;;;;;;16.17;65.69;100897.00;3535436;40;20378;-65
2023/07/26 00:38:12;;;;;;;5.10;3.10;;;;;;;15.44;64.93;100790.13;3539049;40;20058;-65
2023/07/26 00:40:39;;;;;;;3.40;3.17;;;;;;;16.12;65.25;100900.09;3536617;40;20113;-65
2023/07/26 00:43:08;;;;;;;4.70;3.20;;;;;;;16.10;65.63;100899.34;3539986;40;19938;-65
2023/07/26 00:45:38;;;;;;;4.93;3.42;;;;;;;16.06;65.46;100895.19;3534693;40;20058;-64
2023/07/26 00:48:05;;;;;;;3.30;3.00;;;;;;;15.65;65.15;100829.00;3535627;40;20090;-65
2023/07/26 00:50:31;;;;;;;4.68;3.20;;;;;;;16.06;65.51;100897.03;3535129;40;20105;-65
2023/07/26 00:52:56;;;;;;;6.22;3.40;;;;;;;16.08;65.45;100901.34;3534838;40;20062;-65
2023/07/26 00:55:22;;;;;;;3.70;3.40;;;;;;;16.08;65.70;100900.47;3536601;40;20050;-65
2023/07/26 00:57:49;;;;;;;4.72;3.22;;;;;;;16.08;66.26;100892.34;3538808;40;20156;-65
2023/07/26 01:00:18;;;;;;;3.35;3.10;;;;;;;15.56;66.38;100806.22;3538512;40;20060;-63
2023/07/26 01:02:44;;;;;;;3.88;3.40;;;;;;;16.07;66.35;100896.03;3534609;40;20156;-63
2023/07/26 01:05:11;;;;;;;4.28;3.65;;;;;;;16.04;66.50;100890.88;3536811;40;20074;-66
2023/07/26 01:08:04;;;;;;;3.60;3.30;;;;;;;16.02;67.15;100901.88;3534414;40;20066;-63
2023/07/26 01:10:54;;;;;;;3.75;3.30;;;;;;;15.97;66.44;100896.81;3536189;40;20131;-63
2023/07/26 01:13:53;;;;;;;4.43;3.50;;;;;;;15.95;67.60;100904.22;3546091;40;20090;-65
2023/07/26 01:16:20;;;;;;;5.25;3.90;;;;;;;15.91;66.87;100897.31;3538241;40;20053;-63
2023/07/26 01:18:45;;;;;;;4.28;3.97;;;;;;;15.89;67.36;100902.03;3537782;40;20125;-63
2023/07/26 01:21:11;;;;;;;3.83;3.53;;;;;;;15.88;67.83;100908.41;3536966;40;20062;-63
2023/07/26 01:23:38;;;;;;;4.13;3.72;;;;;;;15.85;68.30;100907.81;3534250;40;20313;-63
2023/07/26 01:26:05;;;;;;;5.03;3.95;;;;;;;15.77;67.98;100900.34;3535791;40;20057;-63
2023/07/26 01:28:31;;;;;;;4.15;3.50;;;;;;;15.42;68.08;100846.28;3537055;40;20148;-64
2023/07/26 01:31:01;;;;;;;7.25;3.97;;;;;;;15.68;68.57;100907.38;3538224;40;20084;-64
2023/07/26 01:33:32;;;;;;;4.45;3.60;;;;;;;15.64;68.53;100913.13;3535277;40;20047;-63
2023/07/26 01:35:59;;;;;;;6.18;3.88;;;;;;;15.61;68.32;100910.69;3536994;40;20069;-63
2023/07/26 01:38:26;;;;;;;6.03;3.50;;;;;;;15.55;68.66;100896.63;3534203;40;20061;-63
2023/07/26 01:40:54;;;;;;;3.97;3.63;;;;;;;15.46;69.13;100896.53;3533548;40;20062;-63
2023/07/26 01:43:20;;;;;;;4.97;3.78;;;;;;;15.47;68.98;100901.81;3533669;40;20409;-63
2023/07/26 01:45:46;;;;;;;5.55;3.78;;;;;;;15.44;69.45;100899.34;3537883;40;20300;-63
2023/07/26 01:48:11;;;;;;;4.38;3.97;;;;;;;15.42;69.53;100904.03;3537694;40;20066;-65
2023/07/26 01:50:37;;;;;;;4.90;3.55;;;;;;;15.41;69.08;100905.00;3537133;40;20058;-65
2023/07/26 01:53:02;;;;;;;3.90;3.60;;;;;;;15.40;69.87;100902.44;3535755;40;20586;-65
2023/07/26 01:55:28;;;;;;;4.07;3.67;;;;;;;15.40;70.00;100903.28;3536337;40;20061;-66
2023/07/26 01:57:54;;;;;;;6.75;3.90;;;;;;;15.37;69.59;100895.41;3538294;40;20322;-63
2023/07/26 02:00:19;;;;;;;4.72;3.53;;;;;;;15.37;69.32;100895.41;3534561;40;20293;-64
2023/07/26 02:02:45;;;;;;;4.80;3.53;;;;;;;14.78;69.18;100799.09;3535082;40;20378;-64
2023/07/26 02:05:11;;;;;;;3.90;3.42;;;;;;;15.33;69.24;100894.81;3538216;40;20070;-63
2023/07/26 02:07:38;;;;;;;3.55;2.97;;;;;;;15.33;68.99;100897.50;3538026;40;20059;-64
2023/07/26 02:10:04;;;;;;;4.93;3.10;;;;;;;15.06;69.14;100843.75;3535591;40;20050;-64
2023/07/26 02:12:30;;;;;;;4.30;3.15;;;;;;;15.33;68.75;100885.81;3536999;40;20066;-64
2023/07/26 02:14:55;;;;;;;4.70;3.47;;;;;;;15.30;68.70;100888.78;3534116;40;20058;-64
2023/07/26 02:17:21;;;;;;;3.00;2.70;;;;;;;15.29;68.78;100893.34;3536202;40;20393;-64
2023/07/26 02:19:47;;;;;;;3.13;2.70;;;;;;;15.26;68.14;100887.31;3535906;40;20658;-64
2023/07/26 02:22:12;;;;;;;3.70;2.72;;;;;;;15.23;68.23;100879.44;3540079;40;20057;-64
2023/07/26 02:24:38;;;;;;;4.10;2.97;;;;;;;15.21;68.21;100881.38;3536350;40;20132;-64
2023/07/26 02:27:04;;;;;;;2.88;2.60;;;;;;;15.19;68.67;100884.25;3535863;40;20432;-64
2023/07/26 02:29:29;;;;;;;3.15;2.85;;;;;;;15.17;68.04;100893.47;3532809;40;20070;-64
2023/07/26 02:31:57;;;;;;;2.88;2.58;;;;;;;15.15;68.56;100893.56;3537995;40;20088;-64
2023/07/26 02:34:22;;;;;;;2.60;2.40;;;;;;;15.13;67.87;100889.25;3534736;40;20051;-64
2023/07/26 02:36:48;;;;;;;2.72;2.53;;;;;;;15.11;68.53;100888.53;3536028;40;20513;-64
2023/07/26 02:39:13;;;;;;;4.50;2.58;;;;;;;15.09;68.17;100892.19;3537036;40;20278;-63
2023/07/26 02:41:39;;;;;;;4.03;2.55;;;;;;;15.07;68.59;100880.66;3539031;40;20362;-64
2023/07/26 02:44:05;;;;;;;2.75;2.50;;;;;;;15.07;68.83;100885.22;3536515;40;20084;-64
2023/07/26 02:46:31;;;;;;;3.67;2.60;;;;;;;14.29;68.60;100759.63;3535670;40;20455;-64
2023/07/26 02:48:56;;;;;;;3.85;2.42;;;;;;;15.07;68.47;100890.63;3533409;40;20160;-64
2023/07/26 02:51:22;;;;;;;2.40;2.20;;;;;;;14.66;68.38;100820.84;3537583;40;20054;-64
2023/07/26 02:53:47;;;;;;;2.63;2.20;;;;;;;15.06;68.44;100889.78;3536524;40;20069;-64
2023/07/26 02:56:13;;;;;;;2.40;2.20;;;;;;;15.04;68.52;100907.97;3537307;40;20301;-63
2023/07/26 02:58:39;;;;;;;3.67;2.00;;;;;;;14.49;68.72;100812.16;3537512;40;20059;-64
2023/07/26 03:01:04;;;;;;;3.50;2.58;;;;;;;14.36;70.32;100819.50;3538905;40;20050;-66
2023/07/26 03:03:30;;;;;;;5.15;3.10;;;;;;;14.19;73.88;100828.94;3536036;40;20140;-66
2023/07/26 03:05:59;;;;;;;5.80;3.25;;;;;;;14.61;76.60;100918.59;3537944;40;20062;-66
2023/07/26 03:08:25;;;;;;;3.85;3.40;;;;;;;14.51;77.87;100914.88;3537618;40;20065;-66
2023/07/26 03:10:52;;;;;;;4.68;3.42;;;;;;;14.47;78.49;100907.94;3537533;40;20070;-67
2023/07/26 03:13:17;;;;;;;5.93;4.20;;;;;;;13.95;78.79;100826.25;3540359;40;20061;-66
2023/07/26 03:15:44;;;;;;;5.28;3.70;;;;;;;14.41;79.59;100909.28;3535372;40;20054;-66
2023/07/26 03:18:10;;;;;;;4.75;3.97;;;;;;;14.42;80.14;100905.56;3535420;40;20421;-66
2023/07/26 03:20:36;;;;;;;4.43;4.03;;;;;;;14.04;80.86;100836.38;3538982;40;20114;-66
2023/07/26 03:23:01;;;;;;;4.15;3.72;;;;;;;14.42;80.31;100904.72;3539546;40;20743;-66
2023/07/26 03:25:27;;;;;;;4.10;3.70;;;;;;;14.39;81.01;100906.66;3535154;40;20062;-66
2023/07/26 03:27:53;;;;;;;4.45;3.95;;;;;;;14.36;81.18;100906.03;3538159;40;20420;-66
2023/07/26 03:30:19;;;;;;;4.30;3.80;;;;;;;14.36;82.14;100911.47;3538152;40;20441;-65
2023/07/26 03:32:44;;;;;;;3.88;3.55;;;;;;;14.35;81.44;100916.00;3539449;40;20081;-65
2023/07/26 03:35:10;;;;;;;5.28;4.00;;;;;;;14.33;81.63;100917.09;3536130;40;20081;-65
2023/07/26 03:37:36;;;;;;;4.78;4.28;;;;;;;14.30;82.50;100917.34;3536181;40;20058;-64
2023/07/26 03:40:01;;;;;;;3.80;3.50;;;;;;;14.11;82.56;100896.22;3537416;40;20094;-65
2023/07/26 03:42:27;;;;;;;3.58;3.28;;;;;;;14.19;82.12;100928.13;3536412;40;20056;-65
2023/07/26 03:44:53;;;;;;;4.38;3.72;;;;;;;13.57;81.27;100830.00;3538791;40;20042;-65
2023/07/26 03:47:19;;;;;;;4.38;3.47;;;;;;;14.07;82.40;100917.22;3540713;40;20050;-65
2023/07/26 03:49:44;;;;;;;3.38;3.00;;;;;;;13.55;82.99;100834.66;3542866;40;20054;-66
2023/07/26 03:52:10;;;;;;;3.75;3.45;;;;;;;13.98;82.22;100912.50;3536947;40;20097;-65
2023/07/26 03:54:36;;;;;;;4.10;3.60;;;;;;;13.96;82.43;100909.06;3538634;40;20073;-65
2023/07/26 03:57:01;;;;;;;4.22;3.60;;;;;;;13.92;82.95;100907.56;3539157;40;20058;-65
2023/07/26 03:59:27;;;;;;;4.10;3.65;;;;;;;13.90;83.30;100909.53;3536883;40;20390;-66
2023/07/26 04:01:52;;;;;;;4.28;3.70;;;;;;;13.87;83.61;100910.63;3536779;40;20057;-66
2023/07/26 04:04:18;;;;;;;4.75;4.05;;;;;;;13.86;83.52;100905.31;3541353;40;20054;-67
2023/07/26 04:06:44;;;;;;;4.63;4.13;;;;;;;13.81;83.39;100904.81;3537204;40;20054;-66
2023/07/26 04:09:09;;;;;;;4.80;4.20;;;;;;;13.74;84.17;100903.53;3534905;40;20058;-66
2023/07/26 04:11:35;;;;;;;4.65;4.25;;;;;;;13.62;84.10;100900.75;3538853;40;20415;-66
2023/07/26 04:14:01;;;;;;;4.82;4.32;;;;;;;13.67;84.20;100903.13;3539133;40;20097;-66
2023/07/26 04:16:26;;;;;;;5.43;4.63;;;;;;;13.66;84.46;100912.19;3535520;40;20060;-66
2023/07/26 04:18:52;;;;;;;5.50;5.00;;;;;;;13.64;84.84;100911.47;3537811;40;20070;-66
2023/07/26 04:21:19;;;;;;;4.93;4.43;;;;;;;13.58;84.88;100910.06;3535650;40;20101;-66
2023/07/26 04:23:46;;;;;;;6.03;4.88;;;;;;;13.57;85.59;100904.75;3536092;40;20050;-66
2023/07/26 04:26:12;;;;;;;6.75;5.50;;;;;;;13.57;86.29;100902.91;3535718;40;20397;-66
2023/07/26 04:28:38;;;;;;;6.53;5.18;;;;;;;13.03;86.23;100811.44;3536339;40;20145;-66
2023/07/26 04:31:04;;;;;;;5.60;5.00;;;;;;;12.77;86.44;100773.72;3534423;40;20110;-67
2023/07/26 04:33:30;;;;;;;6.55;5.95;;;;;;;13.60;86.78;100912.66;3533411;40;20109;-66
2023/07/26 04:35:57;;;;;;;6.85;5.60;;;;;;;13.57;86.95;100896.66;3537173;40;20061;-66
2023/07/26 04:38:24;;;;;;;7.20;5.80;;;;;;;13.62;86.18;100908.88;3534761;40;20662;-66
2023/07/26 04:40:50;;;;;;;6.55;5.88;;;;;;;13.22;86.85;100836.16;3534965;40;20446;-66
2023/07/26 04:43:16;;;;;;;9.43;6.43;;;;;;;13.61;86.72;100903.59;3536580;40;20140;-66
2023/07/26 04:45:45;;;;;;;7.07;6.43;;;;;;;13.62;87.49;100906.16;3538318;40;20313;-66
2023/07/26 04:48:11;;;;;;;7.20;6.50;;;;;;;13.65;87.77;100911.34;3532746;40;20066;-66
2023/07/26 04:50:37;;;;;;;14.85;13.27;;;;;;;13.68;88.47;100911.13;3538955;40;20408;-66
2023/07/26 04:53:02;;;;;;;20.60;17.30;;;;;;;13.74;88.17;100915.22;3534730;40;20060;-66
2023/07/26 04:55:28;;;;;;;10.05;9.02;;;;;;;13.80;87.86;100911.19;3533891;40;20101;-66
2023/07/26 04:57:53;;;;;;;9.30;7.30;;;;;;;13.42;87.41;100839.25;3533688;40;20097;-66
2023/07/26 05:00:19;;;;;;;8.07;6.55;;;;;;;13.89;87.70;100913.19;3534727;40;20064;-66
2023/07/26 05:02:45;;;;;;;7.70;7.00;;;;;;;13.93;88.23;100910.16;3535981;40;20553;-67
2023/07/26 05:05:10;;;;;;;7.18;6.47;;;;;;;13.96;87.16;100909.06;3533787;40;20054;-66
2023/07/26 05:07:36;;;;;;;9.65;6.60;;;;;;;13.58;86.87;100842.53;3535958;40;20057;-67
2023/07/26 05:10:02;;;;;;;8.35;6.53;;;;;;;14.02;87.33;100908.63;3537383;40;20133;-66
2023/07/26 05:12:28;;;;;;;7.65;6.85;;;;;;;14.11;86.98;100912.44;3535587;40;20066;-67
2023/07/26 05:14:53;;;;;;;8.02;6.63;;;;;;;14.16;86.62;100921.94;3533775;40;20463;-67
2023/07/26 05:17:19;;;;;;;7.40;6.35;;;;;;;14.21;86.90;100904.50;3537121;40;20371;-67
2023/07/26 05:19:45;;;;;;;7.50;5.90;;;;;;;14.27;86.00;100917.56;3537642;40;20061;-67
2023/07/26 05:22:11;;;;;;;7.57;6.43;;;;;;;14.32;86.81;100915.38;3534434;40;20070;-66
2023/07/26 05:24:36;;;;;;;7.25;6.55;;;;;;;14.38;86.67;100917.63;3535192;40;20062;-66
2023/07/26 05:27:03;;;;;;;7.35;6.57;;;;;;;14.43;85.54;100920.84;3535920;40;20058;-66
2023/07/26 05:29:29;;;;;;;8.10;6.57;;;;;;;14.46;85.13;100911.59;3537235;40;20086;-67
2023/07/26 05:31:55;;;;;;;9.95;6.65;;;;;;;14.53;84.62;100912.91;3539255;40;20404;-67
2023/07/26 05:34:21;;;;;;;9.27;6.45;;;;;;;14.07;84.71;100835.28;3537719;40;20050;-66
2023/07/26 05:36:46;;;;;;;8.38;5.72;;;;;;;14.02;85.02;100821.25;3531927;40;20090;-67
2023/07/26 05:39:12;;;;;;;6.75;6.03;;;;;;;14.16;84.91;100831.88;3537114;40;20069;-67
2023/07/26 05:41:38;;;;;;;7.43;5.95;;;;;;;14.73;85.25;100914.94;3541334;40;20049;-66
2023/07/26 05:44:04;;;;;;;8.90;6.35;;;;;;;14.26;84.93;100834.72;3538059;40;20060;-66
2023/07/26 05:46:30;;;;;;;9.48;6.07;;;;;;;14.84;84.44;100922.19;3537270;40;20070;-67
2023/07/26 05:48:55;;;;;;;9.43;5.90;;;;;;;14.38;84.10;100831.09;3542811;40;20049;-66
2023/07/26 05:51:21;;;;;;;6.85;6.07;;;;;;;14.99;84.45;100918.28;3542189;40;20297;-66
2023/07/26 05:53:46;;;;;;;10.27;7.00;;;;;;;15.05;83.85;100920.50;3539139;40;20415;-66
2023/07/26 05:56:14;;;;;;;7.55;6.18;;;;;;;14.99;83.39;100902.03;3543037;40;20089;-66
2023/07/26 05:58:39;;;;;;;9.63;6.38;;;;;;;14.69;82.70;100834.13;3536921;40;20132;-66
2023/07/26 06:01:05;;;;;;;9.55;7.05;;;;;;;15.23;82.90;100911.94;3537765;40;20062;-66
2023/07/26 06:03:33;;;;;;;9.35;6.38;;;;;;;15.27;83.21;100907.97;3537946;40;20066;-66
2023/07/26 06:05:59;;;;;;;8.35;7.10;;;;;;;15.33;83.10;100918.31;3538074;40;20144;-66
2023/07/26 06:08:25;;;;;;;7.72;6.88;;;;;;;15.40;83.69;100918.69;3535060;40;20046;-66
2023/07/26 06:10:51;;;;;;;10.48;7.20;;;;;;;15.53;83.56;100928.41;3539902;40;20441;-67
2023/07/26 06:13:16;;;;;;;8.85;7.13;;;;;;;15.66;83.88;100935.53;3536089;40;20317;-66
2023/07/26 06:15:42;;;;;;;8.70;7.10;;;;;;;15.81;83.69;100941.59;3535060;40;20077;-66
2023/07/26 06:18:08;;;;;;;11.93;7.32;;;;;;;15.94;83.23;100945.00;3535842;40;20126;-66
2023/07/26 06:20:34;;;;;;;10.40;7.05;;;;;;;16.05;82.51;100953.13;3538818;40;20499;-67
2023/07/26 06:23:00;;;;;;;9.05;7.25;;;;;;;16.09;80.80;100949.16;3537382;40;20400;-66
2023/07/26 06:25:26;;;;;;;13.73;8.02;;;;;;;16.15;81.07;100947.81;3534696;40;20054;-67
2023/07/26 06:27:52;;;;;;;12.05;8.05;;;;;;;16.21;81.18;100959.00;3535198;40;20361;-67
2023/07/26 06:30:17;;;;;;;13.45;8.00;;;;;;;16.29;81.49;100966.47;3536162;40;20054;-67
2023/07/26 06:32:43;;;;;;;11.70;7.60;;;;;;;15.90;81.11;100901.03;3536567;40;20072;-67
2023/07/26 06:35:09;;;;;;;8.50;7.57;;;;;;;15.92;81.17;100887.34;3534012;40;20078;-67
2023/07/26 06:37:35;;;;;;;10.00;7.70;;;;;;;16.41;80.22;100976.31;3539001;40;20054;-67
2023/07/26 06:40:02;;;;;;;12.48;7.90;;;;;;;16.40;79.98;100974.59;3534125;40;20058;-67
2023/07/26 06:42:28;;;;;;;13.75;8.25;;;;;;;16.38;80.96;100973.84;3535167;40;20473;-67
2023/07/26 06:44:54;;;;;;;14.35;8.50;;;;;;;16.39;81.47;100981.00;3536086;40;20116;-67
2023/07/26 06:47:19;;;;;;;11.70;8.52;;;;;;;16.40;81.45;100982.75;3535213;40;20061;-67
2023/07/26 06:49:45;;;;;;;11.27;7.88;;;;;;;15.75;81.80;100872.47;3535241;40;20057;-68
2023/07/26 06:52:11;;;;;;;11.48;8.38;;;;;;;16.40;82.94;100985.44;3534107;40;20108;-66
2023/07/26 06:54:37;;;;;;;10.88;8.90;;;;;;;16.38;82.66;100978.44;3536375;40;20297;-67
2023/07/26 06:57:03;;;;;;;13.10;8.95;;;;;;;15.83;83.84;100898.97;3534680;40;20050;-66
2023/07/26 06:59:29;;;;;;;12.90;9.15;;;;;;;16.34;83.92;100985.97;3532308;40;20054;-67
2023/07/26 07:01:54;;;;;;;11.52;9.57;;;;;;;16.33;85.02;100989.66;3533059;40;20069;-66
2023/07/26 07:04:20;;;;;;;15.20;9.88;;;;;;;16.31;84.87;100985.38;3537867;40;20058;-66
2023/07/26 07:06:46;;;;;;;14.82;9.38;;;;;;;16.29;85.83;100988.19;3536944;40;20058;-66
2023/07/26 07:09:12;;;;;;;11.60;9.60;;;;;;;16.22;85.20;100978.84;3532245;40;20054;-66
2023/07/26 07:11:38;;;;;;;10.57;9.30;;;;;;;15.67;86.56;100896.66;3536027;40;20124;-66
2023/07/26 07:14:04;;;;;;;13.82;9.50;;;;;;;15.60;86.37;100901.66;3534251;40;20122;-66
2023/07/26 07:16:30;;;;;;;14.77;10.10;;;;;;;15.71;87.11;100925.22;3537035;40;20457;-67
2023/07/26 07:18:56;;;;;;;13.63;9.80;;;;;;;16.16;87.29;101001.06;3534695;40;20057;-66
2023/07/26 07:21:21;;;;;;;13.65;10.55;;;;;;;16.19;87.49;101006.22;3536758;40;20065;-66
2023/07/26 07:23:47;;;;;;;15.98;10.90;;;;;;;16.24;88.89;101017.56;3535736;40;20097;-66
2023/07/26 07:26:13;;;;;;;15.77;11.13;;;;;;;16.29;89.03;101009.88;3537395;40;20438;-67
2023/07/26 07:28:39;;;;;;;15.45;10.65;;;;;;;16.33;87.95;101018.63;3536739;40;20050;-66
2023/07/26 07:31:06;;;;;;;12.38;10.23;;;;;;;16.34;87.36;101020.38;3538015;40;20287;-66
2023/07/26 07:33:32;;;;;;;13.65;9.75;;;;;;;16.43;88.37;101035.91;3535489;40;20437;-67
2023/07/26 07:35:57;;;;;;;13.15;9.88;;;;;;;16.12;89.02;100967.03;3531141;40;20070;-67
2023/07/26 07:38:23;;;;;;;11.63;9.10;;;;;;;16.56;87.66;101024.88;3536858;40;20346;-66
2023/07/26 07:40:49;;;;;;;11.93;9.63;;;;;;;16.53;87.12;101019.69;3538689;40;20061;-66
2023/07/26 07:43:15;;;;;;;13.18;8.80;;;;;;;16.63;86.55;101036.94;3537612;40;20430;-66
2023/07/26 07:45:42;;;;;;;12.38;8.70;;;;;;;16.59;86.03;101027.34;3534192;40;20062;-66
2023/07/26 07:48:08;;;;;;;10.65;9.23;;;;;;;16.16;86.28;100944.09;3534222;40;20065;-66
2023/07/26 07:50:35;;;;;;;13.00;8.48;;;;;;;16.87;86.41;101034.00;3535780;40;20452;-66
2023/07/26 07:53:01;;;;;;;11.20;8.30;;;;;;;16.58;87.14;100939.59;3537201;40;20089;-66
2023/07/26 07:55:27;;;;;;;12.55;8.02;;;;;;;17.26;83.94;101024.31;3536908;40;20058;-66
2023/07/26 07:57:52;;;;;;;12.57;8.35;;;;;;;16.72;82.66;100930.28;3537962;40;20366;-66
2023/07/26 08:00:18;;;;;;;10.93;8.55;;;;;;;17.50;83.27;101023.16;3535071;40;20492;-66
2023/07/26 08:02:44;;;;;;;13.27;8.23;;;;;;;17.70;82.98;101018.69;3536530;40;20101;-66
2023/07/26 08:05:10;;;;;;;9.13;7.57;;;;;;;17.89;78.51;101029.69;3533257;40;20058;-66
2023/07/26 08:07:36;;;;;;;9.32;7.97;;;;;;;17.96;77.85;101028.13;3536003;40;20382;-66
2023/07/26 08:10:02;;;;;;;12.10;7.80;;;;;;;18.13;77.48;101020.28;3536917;40;20077;-66
2023/07/26 08:12:27;;;;;;;9.80;7.35;;;;;;;17.78;78.07;100926.44;3535878;40;20090;-66
2023/07/26 08:14:53;;;;;;;8.48;6.78;;;;;;;18.02;76.33;100942.38;3533962;40;20070;-66
2023/07/26 08:17:18;;;;;;;8.05;6.85;;;;;;;18.85;76.24;101021.84;3534665;40;20327;-66
2023/07/26 08:19:46;;;;;;;10.18;6.70;;;;;;;19.05;74.09;101023.56;3534675;40;20056;-66
2023/07/26 08:22:12;;;;;;;9.05;6.15;;;;;;;19.16;70.81;101034.31;3534910;40;20345;-66
2023/07/26 08:24:38;;;;;;;9.20;6.93;;;;;;;19.16;70.72;101015.22;3538750;40;20133;-66
2023/07/26 08:27:06;;;;;;;9.18;5.97;;;;;;;19.44;72.23;101031.66;3541415;40;20600;-65
2023/07/26 08:29:32;;;;;;;9.10;6.32;;;;;;;19.62;68.79;101027.16;3536730;40;20120;-66
2023/07/26 08:31:58;;;;;;;9.57;6.35;;;;;;;19.24;69.45;100958.09;3536478;40;20081;-65
2023/07/26 08:34:23;;;;;;;8.60;6.40;;;;;;;19.88;68.84;101027.38;3534255;40;20054;-66
2023/07/26 08:36:50;;;;;;;8.13;6.53;;;;;;;19.90;66.83;101025.34;3534255;40;20054;-66
2023/07/26 08:39:15;;;;;;;10.32;6.28;;;;;;;19.88;67.48;101012.88;3535035;40;20077;-66
2023/07/26 08:41:41;;;;;;;6.78;5.90;;;;;;;20.09;64.18;101031.72;3536536;40;20413;-66
2023/07/26 08:44:09;;;;;;;6.18;5.53;;;;;;;19.99;65.34;100958.09;3537686;40;20061;-66
2023/07/26 08:46:40;;;;;;;7.55;5.45;;;;;;;20.43;64.73;101023.78;3534404;40;20062;-66
2023/07/26 08:49:08;;;;;;;8.77;5.25;;;;;;;19.94;63.62;100939.44;3533098;40;20055;-66
2023/07/26 08:51:35;;;;;;;5.95;5.35;;;;;;;20.75;62.33;101036.09;3535791;40;20097;-66
2023/07/26 08:54:00;;;;;;;7.18;5.60;;;;;;;20.85;62.37;101020.47;3533641;40;20095;-66
2023/07/26 08:56:27;;;;;;;6.82;5.70;;;;;;;20.87;61.30;101029.38;3537071;40;20070;-66
2023/07/26 08:58:52;;;;;;;7.43;5.47;;;;;;;20.62;62.06;101004.53;3536570;40;20150;-66
2023/07/26 09:01:19;;;;;;;8.10;5.05;;;;;;;20.65;62.90;101027.97;3534830;40;20054;-66
2023/07/26 09:03:44;;;;;;;11.20;5.57;;;;;;;20.68;62.47;101019.47;3533358;40;20058;-65
2023/07/26 09:06:10;;;;;;;6.90;4.97;;;;;;;20.71;60.46;101018.25;3535929;40;20077;-65
2023/07/26 09:08:36;;;;;;;5.50;4.22;;;;;;;20.97;58.20;101012.88;3535326;40;20413;-65
2023/07/26 09:11:23;;;;;;;4.70;4.20;;;;;;;21.40;59.76;101019.38;3534515;40;20060;-65
2023/07/26 09:13:58;;;;;;;4.00;3.60;;;;;;;21.61;55.74;100988.91;3536806;40;20125;-65
2023/07/26 09:16:32;;;;;;;6.15;3.88;;;;;;;21.68;54.41;101000.91;3534690;40;20066;-64
2023/07/26 09:18:59;;;;;;;;;;;;;;;21.48;55.03;101005.78;3538684;40;20091;-65
2023/07/26 09:21:32;;;;;;;5.88;3.75;;;;;;;21.25;54.47;101000.81;3534274;40;19930;-65
2023/07/26 09:24:00;;;;;;;6.40;4.22;;;;;;;20.57;56.05;100924.94;3534453;40;20098;-65
2023/07/26 09:26:40;;;;;;;4.80;3.95;;;;;;;20.94;57.44;101008.59;3534143;40;20178;-65
2023/07/26 09:29:10;;;;;;;5.13;3.50;;;;;;;21.22;56.92;101016.69;3532533;40;20061;-64
2023/07/26 09:31:42;;;;;;;4.25;3.08;;;;;;;21.30;52.36;100983.91;3533739;40;20338;-64
2023/07/26 09:34:13;;;;;;;4.20;3.60;;;;;;;21.46;51.24;101019.59;3534521;40;20058;-64
2023/07/26 09:36:51;;;;;;;5.13;3.55;;;;;;;21.38;52.16;101022.28;3533822;40;20050;-64
2023/07/26 09:39:20;;;;;;;6.68;3.85;;;;;;;21.25;53.30;101009.00;3535039;40;20416;-65
2023/07/26 09:41:46;;;;;;;4.03;3.22;;;;;;;21.12;52.62;101022.22;3534722;40;20042;-64
2023/07/26 09:44:19;;;;;;;3.13;2.40;;;;;;;20.97;52.30;101019.22;3538159;40;20067;-64
2023/07/26 09:46:55;;;;;;;4.40;2.28;;;;;;;21.09;48.01;101023.41;3533054;40;20097;-64
2023/07/26 09:49:24;;;;;;;1.95;1.80;;;;;;;21.19;47.87;101027.94;3535055;40;20058;-65
2023/07/26 09:51:54;;;;;;;3.70;2.22;;;;;;;21.35;49.14;101021.72;3535814;40;20406;-64
2023/07/26 09:54:32;;;;;;;3.67;2.20;;;;;;;21.36;48.44;100945.00;3532664;40;20137;-65
2023/07/26 09:56:59;;;;;;;4.30;2.53;;;;;;;21.86;48.18;101015.38;3534840;40;20076;-65
2023/07/26 09:59:28;;;;;;;2.70;2.33;;;;;;;21.31;46.41;100947.31;3537177;40;20065;-65
2023/07/26 10:01:58;;;;;;;2.13;1.92;;;;;;;21.64;45.75;101019.53;3534250;40;20074;-65
2023/07/26 10:04:47;;;;;;;2.75;2.00;;;;;;;21.59;44.71;101015.56;3536488;40;20393;-65
2023/07/26 10:07:13;;;;;;;2.72;2.25;;;;;;;21.36;46.21;101020.72;3534665;40;20390;-65
2023/07/26 10:09:46;;;;;;;2.90;2.60;;;;;;;21.21;48.38;101020.41;3533800;40;20121;-65
2023/07/26 10:12:14;;;;;;;4.38;2.63;;;;;;;21.03;50.29;101017.72;3538615;40;20100;-65
2023/07/26 10:14:40;;;;;;;6.30;3.00;;;;;;;20.92;50.80;101013.34;3537270;40;20370;-65
2023/07/26 10:17:07;;;;;;;5.47;4.05;;;;;;;20.97;51.75;101004.69;3536502;40;20126;-65
2023/07/26 10:19:36;;;;;;;3.28;2.90;;;;;;;21.02;50.38;100994.97;3533425;40;20139;-65
2023/07/26 10:22:03;;;;;;;3.47;3.13;;;;;;;21.11;52.49;101001.38;3536489;40;20339;-65
2023/07/26 10:24:33;;;;;;;4.88;3.20;;;;;;;21.22;52.42;100987.44;3533886;40;20084;-65
2023/07/26 10:27:00;;;;;;;4.05;3.30;;;;;;;21.74;53.15;100995.66;3536014;40;20059;-65
2023/07/26 10:29:26;;;;;;;4.85;3.22;;;;;;;22.23;51.83;101000.47;3535376;40;20122;-65
2023/07/26 10:32:07;;;;;;;3.90;2.97;;;;;;;22.29;49.39;101004.44;3535534;40;20094;-65
2023/07/26 10:34:33;;;;;;;3.20;2.88;;;;;;;22.22;49.58;100938.53;3536045;40;20062;-65
2023/07/26 10:37:12;;;;;;;4.05;3.20;;;;;;;22.99;50.39;101010.38;3534501;40;20062;-66
2023/07/26 10:39:38;;;;;;;4.18;3.15;;;;;;;22.95;47.15;101000.81;3535136;40;20401;-65
2023/07/26 10:42:05;;;;;;;4.50;3.20;;;;;;;22.80;48.96;100997.84;3534182;40;20052;-65
2023/07/26 10:44:42;;;;;;;3.85;2.90;;;;;;;22.68;48.87;100999.22;3533403;40;20054;-64
2023/07/26 10:47:07;;;;;;;3.22;2.83;;;;;;;22.38;47.25;100996.06;3537295;40;20072;-65
2023/07/26 10:49:34;;;;;;;5.47;3.30;;;;;;;21.74;49.21;100929.13;3534431;40;20050;-64
2023/07/26 10:52:06;;;;;;;5.13;3.38;;;;;;;21.95;50.36;100997.97;3534981;40;20065;-64
2023/07/26 10:54:35;;;;;;;5.18;3.50;;;;;;;22.11;51.45;100991.72;3533518;40;20465;-64
2023/07/26 10:57:31;;;;;;;3.72;3.30;;;;;;;22.54;51.73;100991.66;3536530;40;20059;-65
2023/07/26 11:00:18;;;;;;;5.43;3.75;;;;;;;22.84;51.13;100999.22;3531573;40;20374;-65
2023/07/26 11:02:50;;;;;;;5.25;3.20;;;;;;;23.03;48.48;100997.22;3532207;40;20042;-65
2023/07/26 11:05:19;;;;;;;3.30;2.90;;;;;;;22.91;45.95;100945.44;3536436;40;20087;-65
2023/07/26 11:08:00;;;;;;;6.55;3.47;;;;;;;23.49;46.62;100981.03;3535599;40;20394;-64
2023/07/26 11:10:34;;;;;;;5.15;3.38;;;;;;;23.91;46.16;100994.44;3534636;40;20459;-64
2023/07/26 11:13:26;;;;;;;5.32;3.50;;;;;;;24.00;44.92;100995.28;3536572;40;20058;-65
2023/07/26 11:15:52;;;;;;;4.88;3.50;;;;;;;24.30;45.70;100986.22;3532243;40;20065;-65
2023/07/26 11:18:20;;;;;;;5.55;3.33;;;;;;;24.60;45.04;100994.63;3533309;40;20090;-65
2023/07/26 11:20:51;;;;;;;4.47;3.10;;;;;;;24.52;44.03;100997.44;3534403;40;20097;-64
2023/07/26 11:23:26;;;;;;;3.80;3.17;;;;;;;24.29;43.28;100989.13;3535623;40;20050;-64
2023/07/26 11:26:00;;;;;;;6.43;3.60;;;;;;;24.16;44.37;101014.44;3534617;40;20073;-64